createdAt,value
2022-11-28T03:09:28.226Z,26.83
2022-11-28T03:12:26.096Z,30.57
2022-11-28T03:19:04.970Z,25.30
2022-11-28T03:22:26.848Z,28.60
2022-11-28T03:25:30.433Z,35.60
2022-11-28T03:31:21.791Z,31.57
2022-11-28T03:37:29.219Z,30.43
2022-11-28T03:40:26.695Z,31.60
2022-11-28T03:43:21.074Z,37.03
2022-11-28T03:53:06.598Z,34.80
2022-11-28T03:56:06.285Z,34.03
2022-11-28T03:59:01.548Z,35.93
2022-11-28T04:11:20.407Z,29.93
2022-11-28T04:17:35.702Z,37.23
2022-11-28T04:20:34.888Z,38.90
2022-11-28T04:23:24.486Z,41.80
2022-11-28T04:26:21.863Z,37.73
2022-11-28T04:29:17.378Z,39.20
2022-11-28T04:32:09.587Z,37.23
2022-11-28T04:35:06.286Z,36.60
2022-11-28T04:38:01.134Z,41.63
2022-11-28T04:41:01.016Z,32.70
2022-11-28T04:44:08.788Z,39.70
2022-11-28T04:46:59.232Z,36.90
2022-11-28T04:49:48.900Z,37.80
2022-11-28T04:52:45.075Z,35.87
2022-11-28T04:55:39.948Z,30.37
2022-11-28T04:58:36.617Z,37.20
2022-11-28T05:01:40.212Z,39.57
2022-11-28T05:04:38.525Z,35.23
2022-11-28T05:07:46.813Z,35.53
2022-11-28T05:10:58.139Z,32.77
2022-11-28T05:13:52.061Z,31.60
2022-11-28T05:17:19.319Z,33.67
2022-11-28T05:20:11.434Z,35.33
2022-11-28T05:23:08.964Z,32.03
2022-11-28T05:26:05.164Z,37.40
2022-11-28T05:29:01.094Z,36.17
2022-11-28T05:32:00.520Z,37.37
2022-11-28T05:34:53.111Z,37.17
2022-11-28T05:37:58.628Z,40.50
2022-11-28T05:40:51.302Z,37.87
2022-11-28T05:43:41.901Z,34.10
2022-11-28T05:46:33.771Z,43.50
2022-11-28T05:49:30.719Z,40.17
2022-11-28T05:52:21.580Z,36.17
2022-11-28T05:55:14.165Z,34.30
2022-11-28T05:58:05.982Z,36.07
2022-11-28T06:00:54.854Z,31.77
2022-11-28T06:03:45.078Z,37.13
2022-11-28T06:06:36.716Z,33.60
2022-11-28T06:09:26.788Z,41.60
2022-11-28T06:12:16.164Z,38.30
2022-11-28T06:15:06.044Z,38.90
2022-11-28T06:17:55.071Z,40.27
2022-11-28T06:20:44.872Z,39.73
2022-11-28T06:23:41.627Z,37.60
2022-11-28T06:26:31.830Z,32.77
2022-11-28T06:29:21.204Z,40.20
2022-11-28T06:32:11.540Z,42.40
2022-11-28T06:35:00.386Z,41.60
2022-11-28T06:37:54.707Z,46.50
2022-11-28T06:40:45.767Z,42.10
2022-11-28T06:43:38.247Z,36.90
2022-11-28T06:46:29.782Z,39.93
2022-11-28T06:49:19.990Z,41.70
2022-11-28T06:52:08.942Z,43.87
2022-11-28T06:54:57.396Z,44.57
2022-11-28T06:57:47.384Z,43.83
2022-11-28T07:00:38.135Z,43.60
2022-11-28T07:03:29.005Z,40.17
2022-11-28T07:06:21.360Z,44.50
2022-11-28T07:09:11.667Z,39.37
2022-11-28T07:12:02.201Z,40.37
2022-11-28T07:14:52.901Z,39.53
2022-11-28T07:17:41.651Z,45.67
2022-11-28T07:20:30.387Z,52.40
2022-11-28T07:23:19.120Z,42.33
2022-11-28T07:26:08.887Z,40.57
2022-11-28T07:28:58.389Z,40.53
2022-11-28T07:31:49.628Z,53.20
2022-11-28T07:34:41.345Z,42.57
2022-11-28T07:37:31.202Z,43.93
2022-11-28T07:40:22.874Z,36.90
2022-11-28T07:43:13.269Z,53.03
2022-11-28T07:46:05.193Z,43.80
2022-11-28T07:49:00.842Z,42.93
2022-11-28T07:51:51.287Z,45.93
2022-11-28T07:54:41.527Z,35.13
2022-11-28T07:57:30.871Z,42.30
2022-11-28T08:00:22.683Z,39.47
2022-11-28T08:03:11.450Z,44.93
2022-11-28T08:06:05.906Z,40.27
2022-11-28T08:08:55.782Z,40.17
2022-11-28T08:11:44.696Z,39.37
2022-11-28T08:14:33.820Z,41.03
2022-11-28T08:17:22.456Z,49.63
2022-11-28T08:20:22.944Z,43.37
2022-11-28T08:23:16.588Z,41.70
2022-11-28T08:26:13.489Z,42.70
2022-11-28T08:29:06.948Z,41.43
2022-11-28T08:31:59.383Z,41.03
2022-11-28T08:34:51.809Z,42.20
2022-11-28T08:37:42.728Z,41.23
2022-11-28T08:40:36.799Z,38.93
2022-11-28T08:43:25.396Z,36.13
2022-11-28T08:46:16.755Z,30.43
2022-11-28T08:49:08.037Z,39.83
2022-11-28T08:52:00.639Z,39.17
2022-11-28T08:54:52.539Z,41.53
2022-11-28T08:57:45.136Z,41.70
2022-11-28T09:00:34.654Z,39.33
2022-11-28T09:03:26.549Z,43.77
2022-11-28T09:06:18.810Z,44.77
2022-11-28T09:09:10.625Z,34.90
2022-11-28T09:12:00.940Z,40.90
2022-11-28T09:15:02.931Z,38.23
2022-11-28T09:17:56.808Z,38.70
2022-11-28T09:20:49.084Z,38.40
2022-11-28T09:23:53.308Z,40.20
2022-11-28T09:26:45.580Z,38.37
2022-11-28T09:29:38.378Z,40.30
2022-11-28T09:32:32.336Z,44.90
2022-11-28T09:35:27.775Z,38.60
2022-11-28T09:38:19.643Z,33.50
2022-11-28T09:41:36.317Z,39.53
2022-11-28T09:44:28.439Z,35.93
2022-11-28T09:47:25.404Z,43.30
2022-11-28T09:50:23.046Z,43.55
2022-11-28T09:53:22.396Z,43.17
2022-11-28T09:56:18.818Z,38.57
2022-11-28T09:59:22.015Z,27.30
2022-11-28T10:09:57.836Z,36.70
2022-11-28T10:13:17.768Z,41.00
2022-11-28T10:16:20.295Z,44.10
2022-11-28T10:19:57.315Z,43.87
2022-11-28T10:22:45.321Z,42.47
2022-11-28T10:25:42.620Z,38.70
2022-11-28T10:28:45.087Z,38.60
2022-11-28T10:31:54.201Z,37.50
2022-11-28T10:38:00.231Z,38.07
2022-11-28T10:41:03.242Z,52.20
2022-11-28T10:44:05.848Z,43.83
2022-11-28T10:47:06.292Z,38.30
2022-11-28T10:50:30.784Z,41.20
2022-11-28T10:53:55.662Z,37.73
2022-11-28T10:57:01.037Z,45.47
2022-11-28T11:00:08.118Z,47.20
2022-11-28T11:03:13.292Z,43.83
2022-11-28T11:06:13.107Z,41.30
2022-11-28T11:09:24.252Z,39.70
2022-11-28T11:12:22.867Z,40.20
2022-11-28T11:15:39.991Z,46.00
2022-11-28T11:18:31.678Z,37.83
2022-11-28T11:21:37.864Z,38.50
2022-11-28T11:25:11.144Z,40.13
2022-11-28T11:28:26.050Z,36.00
2022-11-28T11:31:46.002Z,38.57
2022-11-28T11:34:57.711Z,41.10
2022-11-28T11:38:37.299Z,40.73
2022-11-28T11:41:44.496Z,37.47
2022-11-28T11:44:42.210Z,39.73
2022-11-28T11:47:58.862Z,45.17
2022-11-28T11:51:07.374Z,43.83
2022-11-28T11:54:26.888Z,41.30
2022-11-28T11:57:37.814Z,37.17
2022-11-28T12:00:50.403Z,39.10
2022-11-28T12:04:13.263Z,37.83
2022-11-28T12:07:27.770Z,35.07
2022-11-28T12:10:30.337Z,36.27
2022-11-28T12:13:44.996Z,36.80
2022-11-28T12:16:54.353Z,36.07
2022-11-28T12:20:07.996Z,35.50
2022-11-28T12:23:17.570Z,35.03
2022-11-28T12:26:34.914Z,32.00
2022-11-28T12:29:49.501Z,35.80
2022-11-28T12:32:52.015Z,35.70
2022-11-28T12:36:03.170Z,33.87
2022-11-28T12:39:16.803Z,45.43
2022-11-28T12:42:45.272Z,34.40
2022-11-28T12:45:55.337Z,35.37
2022-11-28T12:49:09.009Z,29.97
2022-11-28T12:52:35.076Z,39.27
2022-11-28T12:55:37.295Z,39.90
2022-11-28T12:58:36.162Z,41.27
2022-11-28T13:01:56.753Z,37.53
2022-11-28T13:05:36.399Z,41.73
2022-11-28T13:08:49.603Z,43.80
2022-11-28T13:12:01.934Z,44.23
2022-11-28T13:15:00.320Z,34.90
2022-11-28T13:17:59.212Z,36.87
2022-11-28T13:21:26.423Z,33.20
2022-11-28T13:24:48.093Z,39.33
2022-11-28T13:27:47.703Z,40.90
2022-11-28T13:34:02.883Z,38.30
2022-11-28T13:40:33.840Z,41.60
2022-11-28T13:43:38.883Z,40.33
2022-11-28T13:46:43.205Z,44.60
2022-11-28T13:49:37.846Z,40.73
2022-11-28T13:52:39.954Z,36.60
2022-11-28T13:55:58.060Z,38.00
2022-11-28T13:58:58.854Z,42.23
2022-11-28T14:01:55.212Z,40.80
2022-11-28T14:04:48.160Z,51.23
2022-11-28T14:07:39.073Z,40.60
2022-11-28T14:10:58.925Z,46.03
2022-11-28T14:14:09.233Z,39.40
2022-11-28T14:17:17.006Z,46.47
2022-11-28T14:20:21.649Z,44.77
2022-11-28T14:23:25.098Z,55.03
2022-11-28T14:26:30.798Z,65.03
2022-11-28T14:29:30.649Z,58.83
2022-11-28T14:32:35.684Z,54.57
2022-11-28T14:35:57.561Z,58.73
2022-11-28T14:39:03.423Z,59.03
2022-11-28T14:42:59.026Z,58.73
2022-11-28T14:45:49.093Z,71.70
2022-11-28T14:48:42.751Z,62.30
2022-11-28T14:52:38.965Z,63.00
2022-11-28T14:55:27.552Z,64.13
2022-11-28T14:58:23.164Z,64.87
2022-11-28T15:01:16.713Z,60.60
2022-11-28T15:04:36.364Z,66.53
2022-11-28T15:07:36.925Z,65.23
2022-11-28T15:10:56.183Z,85.93
2022-11-28T15:14:12.691Z,59.20
2022-11-28T15:17:16.625Z,66.37
2022-11-28T15:20:29.155Z,55.73
2022-11-28T15:23:27.698Z,62.97
2022-11-28T15:26:26.342Z,57.47
2022-11-28T15:29:24.521Z,68.50
2022-11-28T15:32:17.923Z,65.00
2022-11-28T15:35:23.144Z,65.93
2022-11-28T15:38:19.450Z,59.20
2022-11-28T15:41:16.219Z,61.93
2022-11-28T15:44:17.678Z,59.03
2022-11-28T15:47:21.220Z,56.63
2022-11-28T15:50:21.638Z,68.30
2022-11-28T15:53:20.025Z,70.13
2022-11-28T15:56:12.249Z,54.77
2022-11-28T15:59:01.251Z,61.57
2022-11-28T16:01:59.111Z,65.37
2022-11-28T16:04:57.438Z,65.83
2022-11-28T16:07:48.481Z,63.33
2022-11-28T16:10:40.558Z,66.40
2022-11-28T16:13:33.196Z,63.17
2022-11-28T16:16:27.915Z,66.50
2022-11-28T16:19:27.259Z,76.30
2022-11-28T16:22:22.987Z,70.70
2022-11-28T16:25:23.381Z,66.97
2022-11-28T16:28:36.000Z,71.97
2022-11-28T16:31:28.418Z,71.57
2022-11-28T16:34:49.959Z,64.30
2022-11-28T16:37:38.236Z,68.93
2022-11-28T16:40:28.335Z,73.37
2022-11-28T16:43:25.094Z,67.07
2022-11-28T16:46:22.333Z,72.27
2022-11-28T16:49:34.115Z,71.80
2022-11-28T16:52:48.018Z,70.07
2022-11-28T16:55:46.353Z,70.77
2022-11-28T16:58:37.292Z,58.60
2022-11-28T17:01:29.429Z,74.60
2022-11-28T17:04:27.116Z,72.47
2022-11-28T17:07:17.613Z,70.27
2022-11-28T17:10:07.457Z,72.30
2022-11-28T17:13:00.344Z,74.20
2022-11-28T17:15:52.419Z,97.00
2022-11-28T17:18:41.500Z,76.50
2022-11-28T17:21:39.337Z,75.30
2022-11-28T17:24:36.684Z,76.90
2022-11-28T17:27:25.259Z,80.53
2022-11-28T17:30:20.294Z,70.83
2022-11-28T17:33:18.072Z,78.73
2022-11-28T17:36:08.926Z,83.67
2022-11-28T17:39:05.410Z,78.20
2022-11-28T17:41:57.413Z,85.17
2022-11-28T17:44:49.849Z,96.70
2022-11-28T17:47:42.435Z,78.80
2022-11-28T17:50:33.843Z,86.73
2022-11-28T17:53:26.831Z,79.30
2022-11-28T17:56:44.340Z,88.97
2022-11-28T17:59:43.371Z,75.93
2022-11-28T18:02:38.011Z,89.13
2022-11-28T18:05:35.580Z,96.70
2022-11-28T18:08:34.277Z,85.60
2022-11-28T18:11:28.674Z,76.23
2022-11-28T18:14:39.599Z,87.13
2022-11-28T18:17:35.153Z,80.80
2022-11-28T18:20:37.797Z,86.90
2022-11-28T18:23:28.843Z,85.13
2022-11-28T18:26:31.970Z,94.87
2022-11-28T18:29:39.397Z,89.10
2022-11-28T18:32:36.856Z,84.50
2022-11-28T18:35:28.367Z,92.30
2022-11-28T18:38:19.507Z,97.73
2022-11-28T18:41:17.689Z,90.93
2022-11-28T18:44:14.535Z,81.63
2022-11-28T18:47:09.730Z,86.97
2022-11-28T18:50:02.925Z,80.57
2022-11-28T18:52:57.944Z,86.37
2022-11-28T18:55:49.238Z,95.00
2022-11-28T18:58:43.852Z,77.83
2022-11-28T19:01:41.257Z,90.37
2022-11-28T19:04:34.325Z,89.43
2022-11-28T19:07:29.832Z,82.87
2022-11-28T19:10:20.644Z,86.60
2022-11-28T19:13:11.567Z,77.97
2022-11-28T19:16:07.572Z,93.87
2022-11-28T19:19:01.149Z,87.70
2022-11-28T19:21:55.354Z,78.73
2022-11-28T19:24:45.252Z,82.07
2022-11-28T19:27:41.276Z,89.43
2022-11-28T19:30:30.255Z,88.40
2022-11-28T19:33:21.213Z,87.03
2022-11-28T19:36:13.484Z,87.53
2022-11-28T19:39:03.856Z,84.23
2022-11-28T19:41:55.081Z,80.80
2022-11-28T19:44:43.961Z,77.97
2022-11-28T19:47:36.506Z,82.77
2022-11-28T19:50:25.751Z,83.43
2022-11-28T19:53:15.831Z,82.43
2022-11-28T19:56:14.873Z,83.60
2022-11-28T19:59:08.147Z,87.57
2022-11-28T20:02:02.368Z,87.53
2022-11-28T20:04:51.260Z,79.00
2022-11-28T20:08:11.873Z,75.47
2022-11-28T20:19:55.286Z,78.40
2022-11-28T20:23:34.854Z,66.30
2022-11-28T20:30:53.318Z,77.57
2022-11-28T20:58:27.250Z,72.90
2022-11-28T21:05:40.698Z,78.97
2022-11-28T21:08:34.417Z,74.83
2022-11-28T21:15:01.403Z,79.77
2022-11-28T21:17:50.250Z,76.47
2022-11-28T21:20:44.374Z,79.13
2022-11-28T21:23:36.958Z,80.00
2022-11-28T21:26:40.869Z,75.70
2022-11-28T21:29:31.142Z,75.20
2022-11-28T21:32:23.227Z,81.57
2022-11-28T22:46:20.602Z,79.53
2022-11-28T22:49:38.665Z,81.90
